Time;durP1;ratioP1;P1;durP2;ratioP2;P2;SDS_P1;SDS_P2;PMS_P1;PMS_P2;Temp;Humidity;BMP_temperature;BMP_pressure;BME280_temperature;BME280_humidity;BME280_pressure;Samples;Min_cycle;Max_cycle;Signal;HPM_P1;HPM_P2
2021/06/12 00:01:45;;;;;;;4.90;2.58;;;;;;;;;;10284711;28;20467;-68
2021/06/12 00:06:42;;;;;;;5.20;3.03;;;;;;;;;;10278087;28;20048;-65
2021/06/12 00:11:38;;;;;;;6.50;3.72;;;;;;;;;;10275604;28;20794;-66
2021/06/12 00:16:34;;;;;;;8.07;3.47;;;;;;;;;;10279795;28;20465;-65
2021/06/12 00:21:31;;;;;;;6.53;4.32;;;;;;;;;;10267952;28;20114;-67
2021/06/12 00:26:27;;;;;;;8.07;4.43;;;;;;;;;;10273756;28;20660;-67
2021/06/12 00:31:24;;;;;;;7.25;4.72;;;;;;;;;;10280702;28;20555;-68
2021/06/12 00:36:20;;;;;;;5.80;3.83;;;;;;;;;;10275244;28;20075;-68
2021/06/12 00:41:17;;;;;;;8.45;4.65;;;;;;;;;;10285408;28;20095;-66
2021/06/12 00:46:14;;;;;;;6.93;4.53;;;;;;;;;;10265124;28;20064;-66
2021/06/12 00:51:10;;;;;;;7.35;5.05;;;;;;;;;;10288144;28;20139;-67
2021/06/12 00:56:17;;;;;;;9.40;6.80;;;;;;;;;;10271724;28;20037;-67
2021/06/12 01:01:15;;;;;;;13.23;7.30;;;;;;;;;;10279341;28;20063;-68
2021/06/12 01:06:12;;;;;;;10.88;7.55;;;;;;;;;;10284971;28;20041;-67
2021/06/12 01:11:09;;;;;;;11.52;7.22;;;;;;;;;;10263007;28;20061;-66
2021/06/12 01:16:10;;;;;;;13.02;7.43;;;;;;;;;;10272922;28;20136;-67
2021/06/12 01:21:13;;;;;;;9.48;5.90;;;;;;;;;;10280825;28;20178;-66
2021/06/12 01:26:27;;;;;;;11.00;6.40;;;;;;;;;;10284116;28;20135;-67
2021/06/12 01:31:24;;;;;;;10.98;6.80;;;;;;;;;;10284877;28;20108;-67
2021/06/12 01:36:22;;;;;;;10.55;7.15;;;;;;;;;;10270491;28;20107;-68
2021/06/12 01:41:20;;;;;;;10.50;6.57;;;;;;;;;;10286502;28;20114;-68
2021/06/12 01:46:16;;;;;;;9.95;6.45;;;;;;;;;;10276563;28;20041;-68
2021/06/12 01:51:13;;;;;;;11.35;7.78;;;;;;;;;;10285967;28;20123;-65
2021/06/12 01:56:10;;;;;;;12.40;7.55;;;;;;;;;;10274369;28;20151;-69
2021/06/12 02:01:08;;;;;;;12.05;6.93;;;;;;;;;;10278948;28;20071;-69
2021/06/12 02:06:04;;;;;;;12.57;7.97;;;;;;;;;;10276105;28;20098;-68
2021/06/12 02:11:01;;;;;;;11.48;6.90;;;;;;;;;;10272355;28;20083;-69
2021/06/12 02:15:58;;;;;;;9.60;6.80;;;;;;;;;;10270847;28;20131;-64
2021/06/12 02:20:55;;;;;;;10.15;7.10;;;;;;;;;;10267546;28;20451;-68
2021/06/12 02:25:51;;;;;;;9.55;6.45;;;;;;;;;;10264214;28;20479;-68
2021/06/12 02:30:50;;;;;;;10.32;6.78;;;;;;;;;;10278082;28;20071;-69
2021/06/12 02:35:46;;;;;;;11.70;7.80;;;;;;;;;;10269620;28;20069;-68
2021/06/12 02:40:43;;;;;;;9.52;7.40;;;;;;;;;;10287268;28;20091;-69
2021/06/12 02:45:40;;;;;;;10.52;8.10;;;;;;;;;;10275344;28;20072;-67
2021/06/12 02:50:37;;;;;;;12.48;8.90;;;;;;;;;;10271234;28;20060;-65
2021/06/12 02:55:36;;;;;;;14.57;10.13;;;;;;;;;;10272912;28;20044;-68
2021/06/12 03:00:34;;;;;;;15.27;11.02;;;;;;;;;;10259179;28;20049;-69
2021/06/12 03:05:32;;;;;;;21.38;15.50;;;;;;;;;;10273450;28;20123;-69
2021/06/12 03:10:29;;;;;;;18.40;13.02;;;;;;;;;;10269297;28;20135;-69
2021/06/12 03:15:27;;;;;;;20.02;13.80;;;;;;;;;;10270682;28;20738;-68
2021/06/12 03:20:23;;;;;;;17.90;12.85;;;;;;;;;;10279343;28;20045;-67
2021/06/12 03:25:21;;;;;;;19.83;13.75;;;;;;;;;;10285770;28;20477;-68
2021/06/12 03:30:17;;;;;;;15.93;12.30;;;;;;;;;;10282112;28;20040;-67
2021/06/12 03:35:14;;;;;;;19.40;13.02;;;;;;;;;;10285063;28;20044;-67
2021/06/12 03:40:10;;;;;;;17.42;12.60;;;;;;;;;;10281281;28;20045;-68
2021/06/12 03:45:08;;;;;;;18.20;11.98;;;;;;;;;;10279571;28;20044;-68
2021/06/12 03:50:06;;;;;;;16.83;11.18;;;;;;;;;;10273133;28;20504;-69
2021/06/12 03:55:03;;;;;;;19.02;12.43;;;;;;;;;;10287848;28;20052;-68
2021/06/12 04:00:01;;;;;;;15.10;11.00;;;;;;;;;;10278097;28;20087;-68
2021/06/12 04:04:57;;;;;;;17.63;11.65;;;;;;;;;;10288564;28;20056;-66
2021/06/12 04:09:54;;;;;;;13.88;10.60;;;;;;;;;;10292595;28;20064;-69
2021/06/12 04:14:50;;;;;;;15.70;11.60;;;;;;;;;;10284352;28;20057;-68
2021/06/12 04:19:46;;;;;;;13.43;9.35;;;;;;;;;;10293626;28;20494;-69
2021/06/12 04:24:43;;;;;;;14.18;8.93;;;;;;;;;;10287064;28;20327;-69
2021/06/12 04:29:39;;;;;;;12.30;7.78;;;;;;;;;;10284614;28;20123;-68
2021/06/12 04:34:35;;;;;;;10.90;8.05;;;;;;;;;;10289012;28;20036;-67
2021/06/12 04:39:32;;;;;;;10.95;7.22;;;;;;;;;;10262624;28;20080;-68
2021/06/12 04:44:29;;;;;;;12.95;7.55;;;;;;;;;;10275503;28;20091;-69
2021/06/12 04:49:25;;;;;;;10.93;7.93;;;;;;;;;;10280171;28;20048;-69
2021/06/12 04:54:21;;;;;;;13.13;8.55;;;;;;;;;;10283470;28;20032;-68
2021/06/12 04:59:17;;;;;;;12.32;8.70;;;;;;;;;;10280269;28;20162;-68
2021/06/12 05:04:14;;;;;;;16.73;9.82;;;;;;;;;;10285348;28;20074;-69
2021/06/12 05:09:10;;;;;;;14.77;9.82;;;;;;;;;;10281894;28;20463;-68
2021/06/12 05:14:06;;;;;;;15.82;10.02;;;;;;;;;;10273844;28;20410;-66
2021/06/12 05:19:02;;;;;;;19.65;10.25;;;;;;;;;;10266055;28;20128;-67
2021/06/12 05:23:59;;;;;;;14.57;10.70;;;;;;;;;;10278788;28;20589;-69
2021/06/12 05:28:55;;;;;;;15.52;10.00;;;;;;;;;;10287047;28;20152;-66
2021/06/12 05:33:52;;;;;;;16.50;11.02;;;;;;;;;;10267849;28;20053;-68
2021/06/12 05:38:48;;;;;;;16.75;10.57;;;;;;;;;;10283994;28;20127;-68
2021/06/12 05:43:45;;;;;;;18.80;13.32;;;;;;;;;;10277683;28;20465;-68
2021/06/12 05:48:42;;;;;;;23.17;15.75;;;;;;;;;;10277617;28;20455;-68
2021/06/12 05:53:38;;;;;;;21.92;15.95;;;;;;;;;;10275696;28;20068;-67
2021/06/12 05:58:34;;;;;;;26.45;18.10;;;;;;;;;;10287178;28;20120;-67
2021/06/12 06:03:30;;;;;;;26.58;17.63;;;;;;;;;;10272682;28;20077;-67
2021/06/12 06:08:27;;;;;;;20.73;16.38;;;;;;;;;;10279913;28;20082;-68
2021/06/12 06:13:23;;;;;;;27.60;17.90;;;;;;;;;;10274015;28;20060;-65
2021/06/12 06:18:21;;;;;;;21.70;15.63;;;;;;;;;;10270386;28;20053;-69
2021/06/12 06:23:18;;;;;;;25.00;17.02;;;;;;;;;;10274958;28;20462;-69
2021/06/12 06:28:14;;;;;;;21.00;16.25;;;;;;;;;;10273057;28;20055;-68
2021/06/12 06:33:10;;;;;;;22.10;16.52;;;;;;;;;;10287727;28;20529;-68
2021/06/12 06:38:07;;;;;;;27.23;16.98;;;;;;;;;;10280075;28;20060;-67
2021/06/12 06:43:03;;;;;;;26.80;17.50;;;;;;;;;;10280347;28;20049;-68
2021/06/12 06:47:59;;;;;;;25.38;17.75;;;;;;;;;;10283913;28;20037;-69
2021/06/12 06:52:57;;;;;;;24.25;19.45;;;;;;;;;;10291107;28;20048;-69
2021/06/12 06:57:54;;;;;;;25.92;19.23;;;;;;;;;;10263070;28;20060;-66
2021/06/12 07:02:51;;;;;;;27.23;19.00;;;;;;;;;;10305761;28;20498;-68
2021/06/12 07:07:48;;;;;;;25.05;18.17;;;;;;;;;;10294224;28;20131;-68
2021/06/12 07:12:44;;;;;;;23.65;19.17;;;;;;;;;;10290026;28;20495;-68
2021/06/12 07:17:41;;;;;;;27.23;18.75;;;;;;;;;;10279996;28;20068;-67
2021/06/12 07:22:37;;;;;;;20.02;14.10;;;;;;;;;;10291175;28;20748;-65
2021/06/12 07:27:33;;;;;;;20.42;10.13;;;;;;;;;;10299106;28;20136;-67
2021/06/12 07:32:30;;;;;;;21.10;12.50;;;;;;;;;;10292404;28;20032;-68
2021/06/12 07:37:26;;;;;;;21.88;12.70;;;;;;;;;;10297681;28;20072;-69
2021/06/12 07:42:22;;;;;;;21.63;13.55;;;;;;;;;;10280219;28;20079;-68
2021/06/12 07:47:19;;;;;;;20.77;14.25;;;;;;;;;;10289774;28;20070;-67
2021/06/12 07:52:15;;;;;;;22.33;16.10;;;;;;;;;;10290198;28;20036;-68
2021/06/12 07:57:12;;;;;;;24.13;15.73;;;;;;;;;;10288125;28;20076;-68
2021/06/12 08:02:08;;;;;;;19.58;13.32;;;;;;;;;;10290489;28;20094;-68
2021/06/12 08:07:05;;;;;;;20.13;14.43;;;;;;;;;;10284525;28;20135;-66
2021/06/12 08:12:01;;;;;;;25.55;15.15;;;;;;;;;;10284120;28;20646;-67
2021/06/12 08:16:58;;;;;;;22.00;14.85;;;;;;;;;;10276844;28;20047;-68
2021/06/12 08:21:54;;;;;;;20.75;13.60;;;;;;;;;;10289019;28;20119;-67
2021/06/12 08:26:51;;;;;;;17.20;13.27;;;;;;;;;;10272719;28;20633;-68
2021/06/12 08:31:47;;;;;;;21.10;13.73;;;;;;;;;;10275483;28;20042;-69
2021/06/12 08:36:44;;;;;;;15.90;11.57;;;;;;;;;;10278775;28;20050;-67
2021/06/12 08:41:40;;;;;;;13.20;10.15;;;;;;;;;;10269605;28;20137;-68
2021/06/12 08:46:37;;;;;;;15.75;11.00;;;;;;;;;;10279543;28;20082;-68
2021/06/12 08:51:34;;;;;;;11.52;8.48;;;;;;;;;;10270185;28;20163;-67
2021/06/12 08:56:30;;;;;;;11.18;5.82;;;;;;;;;;10287923;28;20083;-67
2021/06/12 09:01:27;;;;;;;13.98;6.63;;;;;;;;;;10287312;28;20074;-68
2021/06/12 09:06:23;;;;;;;14.50;6.63;;;;;;;;;;10273013;28;20502;-69
2021/06/12 09:11:34;;;;;;;12.32;5.80;;;;;;;;;;10280409;28;20133;-69
2021/06/12 09:16:35;;;;;;;12.73;5.50;;;;;;;;;;10274731;28;20141;-67
2021/06/12 09:21:43;;;;;;;9.32;5.30;;;;;;;;;;10289867;28;20080;-68
2021/06/12 09:26:41;;;;;;;9.88;5.30;;;;;;;;;;10283609;28;20570;-66
2021/06/12 09:31:48;;;;;;;7.97;4.60;;;;;;;;;;10282593;28;20137;-67
2021/06/12 09:36:45;;;;;;;10.90;5.15;;;;;;;;;;10285290;28;20069;-69
2021/06/12 09:41:42;;;;;;;8.25;4.10;;;;;;;;;;10278704;28;20053;-67
2021/06/12 09:46:45;;;;;;;9.50;2.92;;;;;;;;;;10275841;28;20475;-67
2021/06/12 09:51:59;;;;;;;8.70;2.20;;;;;;;;;;10284495;28;20486;-67
2021/06/12 09:56:58;;;;;;;11.00;2.90;;;;;;;;;;10280299;28;20084;-66
2021/06/12 10:01:55;;;;;;;8.80;2.20;;;;;;;;;;10285112;28;20514;-67
2021/06/12 10:06:51;;;;;;;10.93;3.00;;;;;;;;;;10275693;28;20144;-66
2021/06/12 10:11:48;;;;;;;13.00;4.15;;;;;;;;;;10282486;28;20041;-66
2021/06/12 10:16:45;;;;;;;9.35;3.28;;;;;;;;;;10278049;28;20041;-66
2021/06/12 10:21:41;;;;;;;8.05;2.38;;;;;;;;;;10280221;28;20567;-66
2021/06/12 10:26:38;;;;;;;6.75;1.70;;;;;;;;;;10275990;28;20044;-66
2021/06/12 10:31:37;;;;;;;5.82;1.92;;;;;;;;;;10277718;28;20132;-66
2021/06/12 10:36:34;;;;;;;6.65;2.17;;;;;;;;;;10270079;28;20072;-66
2021/06/12 10:41:33;;;;;;;9.35;3.13;;;;;;;;;;10289257;28;20045;-66
2021/06/12 10:46:31;;;;;;;7.38;2.00;;;;;;;;;;10280313;28;20051;-66
2021/06/12 10:51:27;;;;;;;6.05;1.30;;;;;;;;;;10282809;28;20047;-66
2021/06/12 10:56:34;;;;;;;6.80;1.30;;;;;;;;;;10285220;28;20040;-66
2021/06/12 11:01:30;;;;;;;6.22;1.55;;;;;;;;;;10280120;28;20044;-66
2021/06/12 11:06:39;;;;;;;4.60;1.50;;;;;;;;;;10281839;28;20041;-66
2021/06/12 11:11:35;;;;;;;8.95;1.35;;;;;;;;;;10282032;28;20498;-66
2021/06/12 11:16:32;;;;;;;6.93;1.63;;;;;;;;;;10252196;28;20054;-66
2021/06/12 11:21:28;;;;;;;6.15;1.60;;;;;;;;;;10266819;28;20127;-65
2021/06/12 11:26:24;;;;;;;8.27;1.60;;;;;;;;;;10263445;28;20088;-66
2021/06/12 11:31:31;;;;;;;3.67;1.10;;;;;;;;;;10261594;28;20146;-66
2021/06/12 11:36:27;;;;;;;5.80;1.17;;;;;;;;;;10261888;28;20048;-65
2021/06/12 11:41:24;;;;;;;7.78;2.05;;;;;;;;;;10263958;28;20048;-66
2021/06/12 11:46:31;;;;;;;7.50;1.95;;;;;;;;;;10265983;28;20502;-67
2021/06/12 11:51:32;;;;;;;5.38;1.77;;;;;;;;;;10267471;28;20045;-67
2021/06/12 11:56:42;;;;;;;5.53;1.52;;;;;;;;;;10275960;28;20189;-67
2021/06/12 12:01:41;;;;;;;9.52;2.28;;;;;;;;;;10269854;28;20077;-66
2021/06/12 12:06:38;;;;;;;8.23;1.70;;;;;;;;;;10270301;28;20091;-66
2021/06/12 12:11:34;;;;;;;8.82;2.03;;;;;;;;;;10271713;28;20036;-66
2021/06/12 12:16:31;;;;;;;8.40;2.00;;;;;;;;;;10272162;28;20044;-66
2021/06/12 12:21:38;;;;;;;13.90;4.13;;;;;;;;;;10276252;28;20041;-66
2021/06/12 12:26:37;;;;;;;9.90;1.77;;;;;;;;;;10262052;28;20072;-66
2021/06/12 12:31:40;;;;;;;6.38;1.63;;;;;;;;;;10261928;28;20129;-67
2021/06/12 12:36:44;;;;;;;7.03;1.30;;;;;;;;;;10264383;28;20041;-66
2021/06/12 12:41:50;;;;;;;12.98;1.65;;;;;;;;;;10261659;28;20045;-66
2021/06/12 12:46:47;;;;;;;4.93;1.25;;;;;;;;;;10269095;28;20095;-66
2021/06/12 12:51:50;;;;;;;6.32;1.35;;;;;;;;;;10262437;28;20045;-66
2021/06/12 12:56:48;;;;;;;7.07;1.30;;;;;;;;;;10279290;28;20110;-66
2021/06/12 13:01:54;;;;;;;6.18;0.90;;;;;;;;;;10270062;28;20564;-66
2021/06/12 13:06:50;;;;;;;8.02;1.35;;;;;;;;;;10272068;28;20045;-67
2021/06/12 13:11:53;;;;;;;5.18;1.17;;;;;;;;;;10279981;28;20072;-66
2021/06/12 13:17:16;;;;;;;6.93;1.40;;;;;;;;;;10266010;28;20048;-68
2021/06/12 13:22:27;;;;;;;6.07;1.38;;;;;;;;;;10267139;28;20045;-66
2021/06/12 13:27:29;;;;;;;7.75;1.75;;;;;;;;;;10270214;28;20136;-66
2021/06/12 13:32:26;;;;;;;4.28;1.15;;;;;;;;;;10268750;28;20426;-66
2021/06/12 13:37:23;;;;;;;6.60;1.70;;;;;;;;;;10264643;28;20135;-67
2021/06/12 13:42:20;;;;;;;9.75;2.00;;;;;;;;;;10271251;28;20041;-66
2021/06/12 13:47:17;;;;;;;4.30;1.17;;;;;;;;;;10261971;28;20102;-66
2021/06/12 13:52:13;;;;;;;5.65;1.70;;;;;;;;;;10266560;28;20414;-66
2021/06/12 13:57:09;;;;;;;11.45;1.35;;;;;;;;;;10259302;28;20067;-66
2021/06/12 14:02:06;;;;;;;8.80;1.38;;;;;;;;;;10253176;28;20110;-66
2021/06/12 14:07:03;;;;;;;7.30;1.50;;;;;;;;;;10247678;28;20079;-66
2021/06/12 14:12:00;;;;;;;6.28;1.23;;;;;;;;;;10247123;28;20079;-66
2021/06/12 14:16:56;;;;;;;13.05;1.40;;;;;;;;;;10251232;28;20438;-67
2021/06/12 14:21:53;;;;;;;6.82;1.00;;;;;;;;;;10249549;28;20045;-67
2021/06/12 14:26:50;;;;;;;8.88;1.23;;;;;;;;;;10262840;28;20056;-67
2021/06/12 14:31:47;;;;;;;9.98;1.60;;;;;;;;;;10261719;28;20143;-67
2021/06/12 14:36:43;;;;;;;9.45;2.25;;;;;;;;;;10266257;28;20037;-66
2021/06/12 14:41:41;;;;;;;7.88;2.17;;;;;;;;;;10263779;28;20041;-67
2021/06/12 14:46:37;;;;;;;7.20;1.63;;;;;;;;;;10263901;28;20068;-67
2021/06/12 14:51:35;;;;;;;10.85;1.60;;;;;;;;;;10269736;28;20125;-67
2021/06/12 14:56:31;;;;;;;7.95;1.90;;;;;;;;;;10271522;28;20067;-67
2021/06/12 15:01:27;;;;;;;6.40;1.60;;;;;;;;;;10263687;28;20102;-66
2021/06/12 15:06:24;;;;;;;9.18;1.92;;;;;;;;;;10271352;28;20041;-67
2021/06/12 15:11:20;;;;;;;8.40;2.75;;;;;;;;;;10262697;28;20156;-67
2021/06/12 15:16:17;;;;;;;8.70;1.95;;;;;;;;;;10263651;28;20103;-67
2021/06/12 15:21:13;;;;;;;12.90;2.30;;;;;;;;;;10270545;28;20685;-66
2021/06/12 15:26:10;;;;;;;10.82;2.40;;;;;;;;;;10271829;28;20121;-67
2021/06/12 15:31:08;;;;;;;8.18;2.63;;;;;;;;;;10277911;28;20045;-67
2021/06/12 15:36:05;;;;;;;9.32;1.92;;;;;;;;;;10267740;28;20041;-66
2021/06/12 15:41:01;;;;;;;9.38;1.67;;;;;;;;;;10283114;28;20049;-66
2021/06/12 15:45:58;;;;;;;9.77;1.65;;;;;;;;;;10266476;28;20081;-66
2021/06/12 15:50:54;;;;;;;6.43;1.55;;;;;;;;;;10282840;28;20128;-66
2021/06/12 15:55:51;;;;;;;7.43;1.35;;;;;;;;;;10283327;28;20045;-66
2021/06/12 16:00:47;;;;;;;6.28;1.50;;;;;;;;;;10280859;28;20137;-66
2021/06/12 16:05:44;;;;;;;8.55;1.77;;;;;;;;;;10272479;28;20128;-66
2021/06/12 16:10:40;;;;;;;6.82;1.67;;;;;;;;;;10269858;28;20461;-66
2021/06/12 16:15:37;;;;;;;9.05;1.95;;;;;;;;;;10272045;28;20056;-66
2021/06/12 16:20:33;;;;;;;10.25;2.55;;;;;;;;;;10274990;28;20071;-66
2021/06/12 16:25:29;;;;;;;10.57;1.90;;;;;;;;;;10270514;28;20053;-66
2021/06/12 16:30:26;;;;;;;9.40;3.00;;;;;;;;;;10275200;28;20080;-66
2021/06/12 16:35:23;;;;;;;11.25;2.40;;;;;;;;;;10261589;28;20052;-66
2021/06/12 16:40:19;;;;;;;9.40;1.95;;;;;;;;;;10274075;28;20132;-66
2021/06/12 16:45:17;;;;;;;6.57;2.08;;;;;;;;;;10265080;28;20044;-66
2021/06/12 16:50:14;;;;;;;8.80;2.83;;;;;;;;;;10267919;28;20041;-66
2021/06/12 17:00:08;;;;;;;12.55;2.45;;;;;;;;;;10274295;28;20642;-66
2021/06/12 17:05:04;;;;;;;7.47;2.17;;;;;;;;;;10273580;28;20129;-66
2021/06/12 17:10:00;;;;;;;9.77;2.35;;;;;;;;;;10277006;28;20123;-66
2021/06/12 17:14:57;;;;;;;12.10;2.40;;;;;;;;;;10267265;28;20057;-66
2021/06/12 17:19:54;;;;;;;10.55;2.55;;;;;;;;;;10272337;28;20183;-66
2021/06/12 17:24:50;;;;;;;15.70;3.28;;;;;;;;;;10284249;28;20112;-66
2021/06/12 17:29:47;;;;;;;9.35;3.15;;;;;;;;;;10268198;28;20132;-66
2021/06/12 17:34:43;;;;;;;8.13;2.55;;;;;;;;;;10269420;28;20037;-66
2021/06/12 17:39:40;;;;;;;11.52;2.72;;;;;;;;;;10263503;28;20422;-66
2021/06/12 17:44:37;;;;;;;9.77;3.33;;;;;;;;;;10274840;28;20068;-66
2021/06/12 17:49:34;;;;;;;15.38;3.50;;;;;;;;;;10270405;28;20040;-66
2021/06/12 17:54:30;;;;;;;16.48;4.15;;;;;;;;;;10281843;28;20045;-66
2021/06/12 17:59:27;;;;;;;14.38;3.67;;;;;;;;;;10276882;28;20044;-65
2021/06/12 18:04:23;;;;;;;15.48;4.10;;;;;;;;;;10265433;28;20442;-66
2021/06/12 18:09:19;;;;;;;15.95;3.85;;;;;;;;;;10275662;28;20124;-66
2021/06/12 18:14:15;;;;;;;25.52;4.32;;;;;;;;;;10267815;28;20052;-66
2021/06/12 18:19:12;;;;;;;15.98;3.75;;;;;;;;;;10264347;28;20055;-66
2021/06/12 18:24:08;;;;;;;15.73;4.00;;;;;;;;;;10270239;28;20045;-66
2021/06/12 18:29:04;;;;;;;9.77;2.22;;;;;;;;;;10258325;28;20056;-66
2021/06/12 18:34:02;;;;;;;10.55;2.70;;;;;;;;;;10267628;28;20071;-66
2021/06/12 18:38:58;;;;;;;9.05;2.67;;;;;;;;;;10263783;28;20045;-66
2021/06/12 18:43:54;;;;;;;12.13;2.17;;;;;;;;;;10263325;28;20785;-66
2021/06/12 18:48:51;;;;;;;9.73;3.78;;;;;;;;;;10266072;28;20045;-66
2021/06/12 18:53:47;;;;;;;7.63;1.90;;;;;;;;;;10266443;28;20491;-66
2021/06/12 18:58:44;;;;;;;8.70;2.10;;;;;;;;;;10276602;28;20124;-66
2021/06/12 19:03:40;;;;;;;9.18;2.17;;;;;;;;;;10263495;28;20490;-65
2021/06/12 19:08:37;;;;;;;10.05;3.05;;;;;;;;;;10267155;28;20083;-66
2021/06/12 19:13:33;;;;;;;14.65;3.45;;;;;;;;;;10263324;28;20128;-66
2021/06/12 19:18:30;;;;;;;11.18;4.35;;;;;;;;;;10264321;28;20558;-66
2021/06/12 19:23:26;;;;;;;12.60;3.55;;;;;;;;;;10263056;28;20064;-66
2021/06/12 19:28:22;;;;;;;11.70;2.78;;;;;;;;;;10279624;28;20049;-66
2021/06/12 19:33:19;;;;;;;11.73;3.72;;;;;;;;;;10270483;28;20491;-66
2021/06/12 19:38:28;;;;;;;12.07;4.05;;;;;;;;;;10270117;28;20128;-66
2021/06/12 19:43:25;;;;;;;13.50;3.47;;;;;;;;;;10274036;28;20519;-66
2021/06/12 19:48:21;;;;;;;11.52;3.50;;;;;;;;;;10277473;28;20044;-66
2021/06/12 19:53:18;;;;;;;9.00;3.47;;;;;;;;;;10269289;28;20091;-66
2021/06/12 19:58:14;;;;;;;15.45;4.18;;;;;;;;;;10249917;28;20132;-66
2021/06/12 20:03:10;;;;;;;15.95;5.53;;;;;;;;;;10280275;28;20037;-66
2021/06/12 20:08:07;;;;;;;15.48;4.57;;;;;;;;;;10270953;28;20044;-67
2021/06/12 20:13:03;;;;;;;16.63;6.00;;;;;;;;;;10275103;28;20037;-67
2021/06/12 20:17:59;;;;;;;16.02;4.90;;;;;;;;;;10270937;28;20040;-67
2021/06/12 20:22:57;;;;;;;11.23;4.97;;;;;;;;;;10273815;28;20060;-66
2021/06/12 20:27:54;;;;;;;12.02;3.50;;;;;;;;;;10269032;28;20107;-66
2021/06/12 20:32:50;;;;;;;12.05;2.90;;;;;;;;;;10272746;28;20073;-66
2021/06/12 20:37:46;;;;;;;12.63;3.03;;;;;;;;;;10265771;28;20110;-66
2021/06/12 20:42:43;;;;;;;12.88;4.93;;;;;;;;;;10270929;28;20037;-67
2021/06/12 20:47:39;;;;;;;7.93;2.40;;;;;;;;;;10280365;28;20450;-65
2021/06/12 20:52:37;;;;;;;9.70;3.60;;;;;;;;;;10268861;28;20564;-68
2021/06/12 20:57:33;;;;;;;9.73;3.72;;;;;;;;;;10268847;28;20139;-68
2021/06/12 21:02:34;;;;;;;11.68;3.80;;;;;;;;;;10270289;28;20128;-68
2021/06/12 21:07:30;;;;;;;15.00;4.93;;;;;;;;;;10275411;28;20045;-67
2021/06/12 21:12:27;;;;;;;10.85;3.17;;;;;;;;;;10288795;28;20041;-67
2021/06/12 21:17:24;;;;;;;11.02;3.63;;;;;;;;;;10271247;28;20041;-67
2021/06/12 21:22:21;;;;;;;10.85;2.60;;;;;;;;;;10269701;28;20045;-67
2021/06/12 21:27:17;;;;;;;7.45;2.10;;;;;;;;;;10270663;28;20076;-67
2021/06/12 21:32:13;;;;;;;12.20;2.22;;;;;;;;;;10277331;28;20574;-68
2021/06/12 21:37:11;;;;;;;8.65;2.40;;;;;;;;;;10266518;28;20083;-68
2021/06/12 21:42:08;;;;;;;12.98;2.80;;;;;;;;;;10264515;28;20049;-67
2021/06/12 21:47:04;;;;;;;9.98;3.47;;;;;;;;;;10252796;28;20160;-68
2021/06/12 21:52:01;;;;;;;10.45;2.85;;;;;;;;;;10254419;28;20067;-67
2021/06/12 21:56:57;;;;;;;14.95;3.10;;;;;;;;;;10270824;28;20067;-67
2021/06/12 22:01:54;;;;;;;11.75;2.90;;;;;;;;;;10257504;28;20083;-67
2021/06/12 22:06:51;;;;;;;10.20;3.38;;;;;;;;;;10260602;28;20045;-68
2021/06/12 22:11:47;;;;;;;10.18;2.72;;;;;;;;;;10273678;28;20049;-67
2021/06/12 22:16:43;;;;;;;12.60;3.42;;;;;;;;;;10262598;28;20586;-68
2021/06/12 22:21:45;;;;;;;7.20;2.33;;;;;;;;;;10267181;28;20542;-68
2021/06/12 22:26:43;;;;;;;11.02;2.95;;;;;;;;;;10277039;28;20120;-68
2021/06/12 22:31:39;;;;;;;9.95;2.97;;;;;;;;;;10268289;28;20144;-67
2021/06/12 22:36:36;;;;;;;10.98;2.80;;;;;;;;;;10265378;28;20069;-68
2021/06/12 22:41:32;;;;;;;9.05;2.60;;;;;;;;;;10263176;28;20087;-67
2021/06/12 22:46:29;;;;;;;10.30;3.05;;;;;;;;;;10271403;28;20049;-67
2021/06/12 22:51:25;;;;;;;13.93;2.55;;;;;;;;;;10269494;28;20041;-68
2021/06/12 22:56:24;;;;;;;14.00;3.28;;;;;;;;;;10264404;28;20502;-68
2021/06/12 23:01:21;;;;;;;10.40;2.50;;;;;;;;;;10265891;28;20072;-67
2021/06/12 23:06:17;;;;;;;12.95;3.42;;;;;;;;;;10274291;28;20051;-68
2021/06/12 23:11:13;;;;;;;11.55;2.83;;;;;;;;;;10269221;28;20068;-67
2021/06/12 23:16:10;;;;;;;9.35;2.22;;;;;;;;;;10261462;28;20731;-68
2021/06/12 23:21:07;;;;;;;10.85;2.92;;;;;;;;;;10268224;28;20045;-67
2021/06/12 23:26:03;;;;;;;11.05;2.67;;;;;;;;;;10265298;28;20068;-67
2021/06/12 23:30:59;;;;;;;15.52;2.95;;;;;;;;;;10268359;28;20626;-67
2021/06/12 23:35:56;;;;;;;14.90;2.90;;;;;;;;;;10265129;28;20593;-68
2021/06/12 23:40:52;;;;;;;11.65;2.60;;;;;;;;;;10263570;28;20072;-68
2021/06/12 23:45:48;;;;;;;12.07;3.42;;;;;;;;;;10268405;28;20110;-68
2021/06/12 23:50:44;;;;;;;9.38;2.22;;;;;;;;;;10275701;28;20072;-68
2021/06/12 23:55:41;;;;;;;15.98;3.28;;;;;;;;;;10273680;28;20457;-67
